Time;durP1;ratioP1;P1;durP2;ratioP2;P2;SDS_P1;SDS_P2;PMS_P1;PMS_P2;Temp;Humidity;BMP_temperature;BMP_pressure;BME280_temperature;BME280_humidity;BME280_pressure;Samples;Min_cycle;Max_cycle;Signal;HPM_P1;HPM_P2
2024/03/26 00:02:14;;;;;;;55.88;24.45;;;;;;;;;;5047678;28;20032;-73
2024/03/26 00:04:39;;;;;;;62.30;25.35;;;;;;;;;;5047073;28;20108;-73
2024/03/26 00:07:04;;;;;;;76.53;28.73;;;;;;;;;;5029480;28;20048;-73
2024/03/26 00:09:30;;;;;;;65.32;27.23;;;;;;;;;;5047240;28;20024;-74
2024/03/26 00:11:55;;;;;;;67.13;27.52;;;;;;;;;;5055330;28;20030;-73
2024/03/26 00:14:21;;;;;;;74.25;29.05;;;;;;;;;;5043116;28;20059;-73
2024/03/26 00:16:46;;;;;;;75.88;30.33;;;;;;;;;;5058804;28;20033;-73
2024/03/26 00:19:11;;;;;;;75.25;30.95;;;;;;;;;;5046766;28;20071;-73
2024/03/26 00:21:37;;;;;;;74.35;30.60;;;;;;;;;;5047376;28;20106;-73
2024/03/26 00:24:02;;;;;;;83.53;29.60;;;;;;;;;;5051655;28;20025;-73
2024/03/26 00:26:28;;;;;;;69.95;28.30;;;;;;;;;;5047871;28;20391;-73
2024/03/26 00:28:53;;;;;;;65.60;28.08;;;;;;;;;;5054188;28;20029;-73
2024/03/26 00:31:18;;;;;;;65.45;28.42;;;;;;;;;;5064644;28;20164;-73
2024/03/26 00:33:43;;;;;;;61.28;26.83;;;;;;;;;;5052994;28;20036;-73
2024/03/26 00:36:09;;;;;;;64.50;24.70;;;;;;;;;;5051710;28;20029;-73
2024/03/26 00:38:34;;;;;;;63.55;25.17;;;;;;;;;;5056588;28;20035;-73
2024/03/26 00:41:00;;;;;;;67.18;25.70;;;;;;;;;;5047796;28;20021;-73
2024/03/26 00:43:25;;;;;;;59.13;26.13;;;;;;;;;;5047082;28;20024;-73
2024/03/26 00:45:51;;;;;;;56.28;24.77;;;;;;;;;;5046616;28;20032;-73
2024/03/26 00:48:16;;;;;;;62.45;26.13;;;;;;;;;;5047099;28;20495;-73
2024/03/26 00:50:41;;;;;;;57.17;22.13;;;;;;;;;;5046734;28;20100;-73
2024/03/26 00:53:06;;;;;;;58.72;24.40;;;;;;;;;;5064701;28;20024;-73
2024/03/26 00:55:32;;;;;;;58.42;24.10;;;;;;;;;;5066688;28;20025;-73
2024/03/26 00:57:57;;;;;;;53.28;22.45;;;;;;;;;;5031833;28;20033;-73
2024/03/26 01:00:22;;;;;;;55.17;22.92;;;;;;;;;;5029244;28;20036;-73
2024/03/26 01:02:48;;;;;;;53.03;22.13;;;;;;;;;;5046472;28;20025;-73
2024/03/26 01:05:13;;;;;;;58.35;23.70;;;;;;;;;;5046418;28;20028;-73
2024/03/26 01:07:38;;;;;;;46.15;23.38;;;;;;;;;;5060775;28;20033;-73
2024/03/26 01:10:04;;;;;;;49.08;22.73;;;;;;;;;;5066841;28;20473;-73
2024/03/26 01:12:32;;;;;;;53.58;22.73;;;;;;;;;;5064645;28;20060;-73
2024/03/26 01:14:58;;;;;;;58.28;24.45;;;;;;;;;;5048668;28;20020;-73
2024/03/26 01:17:23;;;;;;;58.22;22.73;;;;;;;;;;5053538;28;20036;-73
2024/03/26 01:19:48;;;;;;;64.25;23.83;;;;;;;;;;5046413;28;20037;-74
2024/03/26 01:22:14;;;;;;;48.05;22.65;;;;;;;;;;5056783;28;20254;-73
2024/03/26 01:24:39;;;;;;;53.88;23.30;;;;;;;;;;5066356;28;20386;-73
2024/03/26 01:27:05;;;;;;;51.55;21.95;;;;;;;;;;5058112;28;20108;-73
2024/03/26 01:29:30;;;;;;;49.00;22.73;;;;;;;;;;5045866;28;20125;-73
2024/03/26 01:31:55;;;;;;;49.83;22.23;;;;;;;;;;5056323;28;20025;-73
2024/03/26 01:34:20;;;;;;;52.42;22.63;;;;;;;;;;5056459;28;20059;-73
2024/03/26 01:36:46;;;;;;;53.42;21.52;;;;;;;;;;5049934;28;20382;-73
2024/03/26 01:39:15;;;;;;;47.58;20.92;;;;;;;;;;5049814;28;20021;-73
2024/03/26 01:41:40;;;;;;;;;;;;;;;;;;5039800;28;20051;-73
2024/03/26 01:44:05;;;;;;;44.87;19.10;;;;;;;;;;5069807;28;19900;-73
2024/03/26 01:46:35;;;;;;;47.22;19.88;;;;;;;;;;5062821;28;20622;-73
2024/03/26 01:49:01;;;;;;;47.10;20.13;;;;;;;;;;5064045;28;20383;-73
2024/03/26 01:51:27;;;;;;;40.22;19.65;;;;;;;;;;5063903;28;20017;-73
2024/03/26 01:53:52;;;;;;;48.75;19.92;;;;;;;;;;5050158;28;20532;-73
2024/03/26 01:56:18;;;;;;;49.15;21.27;;;;;;;;;;5049275;28;20542;-73
2024/03/26 01:58:47;;;;;;;49.20;19.65;;;;;;;;;;5049909;28;20024;-74
2024/03/26 02:01:12;;;;;;;;;;;;;;;;;;5052351;28;20031;-73
2024/03/26 02:03:38;;;;;;;41.63;20.23;;;;;;;;;;5069552;28;19904;-73
2024/03/26 02:06:03;;;;;;;44.08;20.77;;;;;;;;;;5067089;28;20029;-73
2024/03/26 02:08:29;;;;;;;47.45;20.98;;;;;;;;;;5031922;28;20187;-73
2024/03/26 02:10:54;;;;;;;42.80;19.17;;;;;;;;;;5049470;28;20234;-73
2024/03/26 02:13:20;;;;;;;50.47;20.25;;;;;;;;;;5050277;28;20103;-73
2024/03/26 02:15:46;;;;;;;42.60;19.58;;;;;;;;;;5049087;28;20013;-73
2024/03/26 02:18:11;;;;;;;41.22;19.65;;;;;;;;;;5049466;28;20040;-74
2024/03/26 02:20:37;;;;;;;46.85;18.73;;;;;;;;;;5049450;28;20064;-73
2024/03/26 02:23:02;;;;;;;42.25;19.63;;;;;;;;;;5048762;28;20028;-73
2024/03/26 02:25:27;;;;;;;43.45;18.45;;;;;;;;;;5066580;28;20027;-73
2024/03/26 02:27:53;;;;;;;45.75;18.58;;;;;;;;;;5053169;28;20028;-73
2024/03/26 02:30:18;;;;;;;41.13;17.35;;;;;;;;;;5049518;28;20467;-73
2024/03/26 02:32:44;;;;;;;41.78;18.80;;;;;;;;;;5063719;28;20029;-73
2024/03/26 02:35:09;;;;;;;38.25;17.40;;;;;;;;;;5064207;28;20036;-73
2024/03/26 02:37:35;;;;;;;41.75;18.50;;;;;;;;;;5062191;28;20024;-73
2024/03/26 02:40:00;;;;;;;40.75;19.02;;;;;;;;;;5062499;28;20556;-73
2024/03/26 02:42:25;;;;;;;41.78;17.65;;;;;;;;;;5047454;28;20123;-73
2024/03/26 02:44:51;;;;;;;43.45;19.83;;;;;;;;;;5049033;28;20043;-73
2024/03/26 02:47:16;;;;;;;41.30;18.38;;;;;;;;;;5060192;28;20104;-73
2024/03/26 02:49:41;;;;;;;41.30;18.48;;;;;;;;;;5069134;28;20039;-73
2024/03/26 02:52:06;;;;;;;37.70;18.08;;;;;;;;;;5067040;28;20062;-73
2024/03/26 02:54:32;;;;;;;40.88;17.35;;;;;;;;;;5054228;28;20017;-73
2024/03/26 02:56:57;;;;;;;41.28;17.58;;;;;;;;;;5048807;28;20510;-73
2024/03/26 02:59:22;;;;;;;39.83;16.95;;;;;;;;;;5048924;28;20104;-73
2024/03/26 03:01:48;;;;;;;30.38;15.68;;;;;;;;;;5048097;28;20025;-73
2024/03/26 03:04:13;;;;;;;36.00;16.50;;;;;;;;;;5048730;28;20387;-73
2024/03/26 03:06:38;;;;;;;35.75;17.25;;;;;;;;;;5059390;28;20021;-73
2024/03/26 03:09:03;;;;;;;34.50;16.58;;;;;;;;;;5068828;28;20609;-73
2024/03/26 03:11:29;;;;;;;32.45;15.93;;;;;;;;;;5062355;28;20016;-73
2024/03/26 03:13:54;;;;;;;32.08;15.27;;;;;;;;;;5048982;28;20028;-73
2024/03/26 03:16:19;;;;;;;36.03;14.75;;;;;;;;;;5047896;28;20028;-73
2024/03/26 03:18:45;;;;;;;32.28;15.30;;;;;;;;;;5069055;28;20032;-73
2024/03/26 03:21:10;;;;;;;32.95;14.95;;;;;;;;;;5065599;28;20045;-73
2024/03/26 03:23:35;;;;;;;26.58;13.25;;;;;;;;;;5049389;28;20017;-73
2024/03/26 03:26:01;;;;;;;28.30;12.77;;;;;;;;;;5048759;28;20024;-73
2024/03/26 03:28:26;;;;;;;28.02;14.35;;;;;;;;;;5055484;28;20031;-73
2024/03/26 03:30:51;;;;;;;27.80;13.95;;;;;;;;;;5038289;28;20367;-73
2024/03/26 03:33:17;;;;;;;29.83;14.02;;;;;;;;;;5066464;28;20025;-73
2024/03/26 03:35:42;;;;;;;32.28;14.35;;;;;;;;;;5068492;28;20459;-73
2024/03/26 03:38:07;;;;;;;27.50;13.93;;;;;;;;;;5067699;28;20052;-73
2024/03/26 03:40:35;;;;;;;27.40;12.90;;;;;;;;;;5069347;28;20025;-73
2024/03/26 03:43:00;;;;;;;28.83;13.95;;;;;;;;;;5068306;28;20246;-73
2024/03/26 03:45:28;;;;;;;27.20;13.27;;;;;;;;;;5069906;28;20043;-73
2024/03/26 03:47:54;;;;;;;27.27;13.80;;;;;;;;;;5033523;28;20045;-73
2024/03/26 03:50:19;;;;;;;28.50;13.55;;;;;;;;;;5049118;28;20033;-74
2024/03/26 03:52:45;;;;;;;30.08;14.32;;;;;;;;;;5064143;28;20051;-73
2024/03/26 03:55:10;;;;;;;35.03;14.02;;;;;;;;;;5049745;28;20400;-73
2024/03/26 03:57:35;;;;;;;25.98;12.88;;;;;;;;;;5053458;28;20104;-73
2024/03/26 04:00:01;;;;;;;29.08;13.77;;;;;;;;;;5051926;28;20028;-73
2024/03/26 04:02:26;;;;;;;32.05;14.85;;;;;;;;;;5052832;28;20407;-73
2024/03/26 04:04:51;;;;;;;32.15;15.00;;;;;;;;;;5048271;28;20025;-73
2024/03/26 04:07:17;;;;;;;27.10;12.80;;;;;;;;;;5047949;28;20017;-73
2024/03/26 04:09:42;;;;;;;29.65;13.35;;;;;;;;;;5012319;28;20400;-73
2024/03/26 04:12:07;;;;;;;26.40;13.20;;;;;;;;;;5040688;28;20042;-73
2024/03/26 04:14:33;;;;;;;23.83;12.43;;;;;;;;;;5068728;28;20028;-73
2024/03/26 04:16:59;;;;;;;24.50;11.50;;;;;;;;;;5071131;28;20029;-73
2024/03/26 04:19:24;;;;;;;24.20;12.07;;;;;;;;;;5081572;28;20039;-73
2024/03/26 04:21:49;;;;;;;24.55;12.30;;;;;;;;;;5066694;28;20055;-74
2024/03/26 04:24:15;;;;;;;24.23;11.63;;;;;;;;;;5049099;28;20356;-73
2024/03/26 04:26:40;;;;;;;24.10;12.10;;;;;;;;;;5051494;28;20502;-72
2024/03/26 04:29:05;;;;;;;28.30;11.70;;;;;;;;;;5064563;28;20103;-73
2024/03/26 04:31:30;;;;;;;30.17;13.25;;;;;;;;;;5048023;28;20055;-73
2024/03/26 04:33:56;;;;;;;23.27;12.65;;;;;;;;;;5047115;28;20029;-73
2024/03/26 04:36:21;;;;;;;30.00;12.80;;;;;;;;;;5047558;28;20490;-72
2024/03/26 04:38:46;;;;;;;26.60;12.93;;;;;;;;;;5047699;28;20060;-72
2024/03/26 04:41:12;;;;;;;20.30;11.70;;;;;;;;;;5049201;28;20021;-72
2024/03/26 04:43:37;;;;;;;25.85;13.02;;;;;;;;;;5065829;28;20021;-73
2024/03/26 04:46:02;;;;;;;21.55;11.38;;;;;;;;;;5065439;28;20017;-73
2024/03/26 04:48:28;;;;;;;26.17;13.05;;;;;;;;;;5067207;28;20169;-72
2024/03/26 04:50:53;;;;;;;28.17;12.82;;;;;;;;;;5047738;28;20020;-74
2024/03/26 04:53:18;;;;;;;26.75;13.88;;;;;;;;;;5047100;28;20025;-72
2024/03/26 04:55:44;;;;;;;33.70;13.20;;;;;;;;;;5046637;28;20032;-73
2024/03/26 04:58:09;;;;;;;30.60;13.30;;;;;;;;;;5051957;28;20468;-73
2024/03/26 05:00:34;;;;;;;34.72;14.98;;;;;;;;;;5053123;28;20024;-72
2024/03/26 05:03:00;;;;;;;34.35;14.85;;;;;;;;;;5047617;28;20074;-72
2024/03/26 05:05:25;;;;;;;37.28;15.93;;;;;;;;;;5067439;28;20024;-73
2024/03/26 05:07:51;;;;;;;35.78;14.77;;;;;;;;;;5053388;28;20087;-73
2024/03/26 05:10:17;;;;;;;32.00;14.77;;;;;;;;;;5051480;28;20104;-72
2024/03/26 05:12:43;;;;;;;35.00;15.65;;;;;;;;;;5066401;28;20104;-72
2024/03/26 05:15:08;;;;;;;31.20;13.85;;;;;;;;;;5071264;28;20116;-73
2024/03/26 05:17:33;;;;;;;25.80;13.07;;;;;;;;;;5069798;28;20032;-73
2024/03/26 05:19:59;;;;;;;32.38;15.40;;;;;;;;;;5071383;28;20021;-72
2024/03/26 05:22:24;;;;;;;29.25;14.63;;;;;;;;;;5065218;28;20032;-73
2024/03/26 05:24:51;;;;;;;27.80;14.07;;;;;;;;;;5051887;28;20029;-73
2024/03/26 05:27:16;;;;;;;26.75;12.45;;;;;;;;;;5034706;28;20111;-72
2024/03/26 05:29:42;;;;;;;27.25;12.55;;;;;;;;;;5056012;28;20107;-73
2024/03/26 05:32:07;;;;;;;47.78;14.68;;;;;;;;;;5041579;28;20041;-73
2024/03/26 05:34:32;;;;;;;29.10;14.32;;;;;;;;;;5051375;28;20071;-72
2024/03/26 05:36:58;;;;;;;27.38;13.30;;;;;;;;;;5051002;28;20090;-73
2024/03/26 05:39:23;;;;;;;28.02;13.10;;;;;;;;;;5050364;28;20029;-72
2024/03/26 05:41:50;;;;;;;26.13;12.48;;;;;;;;;;5058628;28;20463;-73
2024/03/26 05:44:15;;;;;;;28.40;13.38;;;;;;;;;;5058537;28;20029;-72
2024/03/26 05:46:41;;;;;;;26.35;12.82;;;;;;;;;;5056910;28;20107;-72
2024/03/26 05:49:06;;;;;;;24.20;11.80;;;;;;;;;;5071026;28;20107;-73
2024/03/26 05:51:32;;;;;;;26.92;12.30;;;;;;;;;;5064014;28;20539;-72
2024/03/26 05:53:57;;;;;;;26.20;12.52;;;;;;;;;;5050768;28;20005;-73
2024/03/26 05:56:22;;;;;;;21.83;10.63;;;;;;;;;;5051540;28;20452;-73
2024/03/26 05:58:48;;;;;;;17.83;10.07;;;;;;;;;;5050563;28;20021;-72
2024/03/26 06:01:13;;;;;;;24.45;10.75;;;;;;;;;;5052374;28;20100;-72
2024/03/26 06:03:38;;;;;;;27.00;11.65;;;;;;;;;;5070669;28;20072;-72
2024/03/26 06:06:04;;;;;;;25.33;10.95;;;;;;;;;;5053122;28;20059;-72
2024/03/26 06:08:29;;;;;;;24.23;11.02;;;;;;;;;;5070813;28;20024;-72
2024/03/26 06:10:54;;;;;;;17.60;9.95;;;;;;;;;;5069070;28;20024;-73
2024/03/26 06:13:20;;;;;;;23.45;11.05;;;;;;;;;;5070157;28;20035;-73
2024/03/26 06:15:45;;;;;;;22.40;11.57;;;;;;;;;;5056023;28;20021;-72
2024/03/26 06:18:10;;;;;;;16.90;9.35;;;;;;;;;;5068557;28;20490;-72
2024/03/26 06:20:35;;;;;;;23.65;9.90;;;;;;;;;;5068270;28;20049;-72
2024/03/26 06:23:01;;;;;;;40.25;13.63;;;;;;;;;;5051156;28;20017;-72
2024/03/26 06:25:27;;;;;;;23.33;10.75;;;;;;;;;;5052158;28;20040;-72
2024/03/26 06:27:52;;;;;;;38.78;12.07;;;;;;;;;;5069741;28;20024;-73
2024/03/26 06:30:18;;;;;;;21.15;9.40;;;;;;;;;;5070212;28;20028;-73
2024/03/26 06:32:44;;;;;;;25.75;11.30;;;;;;;;;;5035036;28;20021;-73
2024/03/26 06:35:09;;;;;;;17.38;9.93;;;;;;;;;;5061843;28;20628;-72
2024/03/26 06:37:34;;;;;;;25.00;10.93;;;;;;;;;;5054673;28;20572;-73
2024/03/26 06:40:00;;;;;;;18.42;10.93;;;;;;;;;;5061999;28;20024;-71
2024/03/26 06:42:26;;;;;;;23.35;11.90;;;;;;;;;;5063494;28;20021;-72
2024/03/26 06:44:51;;;;;;;20.65;9.68;;;;;;;;;;5066535;28;20099;-72
2024/03/26 06:47:17;;;;;;;22.20;10.05;;;;;;;;;;5061479;28;20529;-72
2024/03/26 06:49:42;;;;;;;20.33;8.52;;;;;;;;;;5070119;28;20709;-72
2024/03/26 06:52:08;;;;;;;21.73;9.95;;;;;;;;;;5057789;28;20096;-72
2024/03/26 06:54:33;;;;;;;18.00;9.05;;;;;;;;;;5053803;28;20103;-73
2024/03/26 06:56:59;;;;;;;17.63;9.32;;;;;;;;;;5057942;28;20097;-73
2024/03/26 06:59:24;;;;;;;16.63;8.63;;;;;;;;;;5048813;28;20027;-72
2024/03/26 07:01:50;;;;;;;16.98;8.88;;;;;;;;;;5032408;28;20487;-73
2024/03/26 07:04:15;;;;;;;16.30;8.88;;;;;;;;;;5050959;28;20447;-72
2024/03/26 07:06:41;;;;;;;15.73;9.25;;;;;;;;;;5052055;28;20028;-72
2024/03/26 07:09:07;;;;;;;18.77;8.52;;;;;;;;;;5055310;28;20074;-73
2024/03/26 07:11:32;;;;;;;19.15;9.38;;;;;;;;;;5056335;28;20025;-73
2024/03/26 07:13:58;;;;;;;15.32;8.85;;;;;;;;;;5051492;28;20028;-71
2024/03/26 07:16:23;;;;;;;32.05;9.32;;;;;;;;;;5055360;28;20494;-72
2024/03/26 07:18:48;;;;;;;16.77;9.77;;;;;;;;;;5033081;28;20044;-73
2024/03/26 07:21:13;;;;;;;21.30;9.25;;;;;;;;;;5047993;28;20059;-72
2024/03/26 07:23:39;;;;;;;15.77;8.63;;;;;;;;;;5047742;28;20028;-73
2024/03/26 07:26:06;;;;;;;13.55;7.45;;;;;;;;;;5049912;28;20045;-72
2024/03/26 07:28:31;;;;;;;14.25;7.72;;;;;;;;;;5044099;28;20035;-73
2024/03/26 07:30:57;;;;;;;14.02;8.52;;;;;;;;;;5047032;28;20402;-71
2024/03/26 07:33:22;;;;;;;13.40;7.57;;;;;;;;;;5045287;28;20464;-72
2024/03/26 07:35:48;;;;;;;16.60;8.27;;;;;;;;;;5052542;28;20745;-73
2024/03/26 07:38:14;;;;;;;21.20;8.75;;;;;;;;;;5051993;28;20620;-72
2024/03/26 07:40:39;;;;;;;12.52;7.75;;;;;;;;;;5051360;28;20025;-73
2024/03/26 07:43:04;;;;;;;11.63;6.75;;;;;;;;;;5029945;28;20549;-72
2024/03/26 07:45:30;;;;;;;11.90;7.93;;;;;;;;;;5049881;28;20121;-72
2024/03/26 07:47:56;;;;;;;13.68;7.43;;;;;;;;;;5049586;28;20473;-73
2024/03/26 07:50:21;;;;;;;14.32;7.78;;;;;;;;;;5028532;28;20025;-73
2024/03/26 07:52:49;;;;;;;16.13;8.57;;;;;;;;;;5050875;28;20103;-71
2024/03/26 07:55:14;;;;;;;15.60;8.40;;;;;;;;;;5050622;28;20642;-72
2024/03/26 07:57:39;;;;;;;21.90;8.65;;;;;;;;;;5051124;28;20029;-72
2024/03/26 08:00:10;;;;;;;15.75;7.30;;;;;;;;;;5003848;28;20462;-71
2024/03/26 08:02:35;;;;;;;19.45;8.95;;;;;;;;;;5049274;28;20021;-70
2024/03/26 08:05:01;;;;;;;17.45;8.10;;;;;;;;;;5059928;28;20389;-74
2024/03/26 08:07:26;;;;;;;13.93;7.55;;;;;;;;;;5050511;28;20463;-72
2024/03/26 08:09:51;;;;;;;12.43;7.10;;;;;;;;;;5052653;28;20449;-71
2024/03/26 08:12:16;;;;;;;11.73;7.80;;;;;;;;;;5049884;28;20071;-71
2024/03/26 08:14:42;;;;;;;11.82;6.82;;;;;;;;;;5055539;28;20024;-72
2024/03/26 08:17:07;;;;;;;122.75;43.45;;;;;;;;;;5046829;28;20067;-70
2024/03/26 08:19:32;;;;;;;12.30;6.90;;;;;;;;;;5048881;28;20163;-71
2024/03/26 08:21:58;;;;;;;13.68;6.82;;;;;;;;;;5049004;28;20043;-70
2024/03/26 08:24:23;;;;;;;10.10;6.85;;;;;;;;;;5051773;28;20027;-73
2024/03/26 08:26:49;;;;;;;15.00;7.55;;;;;;;;;;5051499;28;20123;-72
2024/03/26 08:29:14;;;;;;;14.82;7.85;;;;;;;;;;5044621;28;20029;-72
2024/03/26 08:31:39;;;;;;;19.45;7.03;;;;;;;;;;5047546;28;20037;-71
2024/03/26 08:34:05;;;;;;;9.98;6.90;;;;;;;;;;5045100;28;20110;-70
2024/03/26 08:36:30;;;;;;;20.48;6.60;;;;;;;;;;5054916;28;20025;-72
2024/03/26 08:38:55;;;;;;;21.60;7.15;;;;;;;;;;5048312;28;20031;-72
2024/03/26 08:41:21;;;;;;;41.97;17.80;;;;;;;;;;5048292;28;20036;-71
2024/03/26 08:43:46;;;;;;;20.25;8.25;;;;;;;;;;5044973;28;20021;-72
2024/03/26 08:46:11;;;;;;;11.00;6.03;;;;;;;;;;5053777;28;20364;-71
2024/03/26 08:48:37;;;;;;;104.53;43.40;;;;;;;;;;5055344;28;20048;-71
2024/03/26 08:51:02;;;;;;;113.57;49.17;;;;;;;;;;5051948;28;20056;-71
2024/03/26 08:53:27;;;;;;;17.83;6.72;;;;;;;;;;5059215;28;20459;-71
2024/03/26 08:55:53;;;;;;;14.00;6.47;;;;;;;;;;5047278;28;20083;-73
2024/03/26 08:58:18;;;;;;;148.50;50.13;;;;;;;;;;5048775;28;20023;-72
2024/03/26 09:00:43;;;;;;;12.02;5.90;;;;;;;;;;5051366;28;20021;-73
2024/03/26 09:03:09;;;;;;;12.13;5.35;;;;;;;;;;5049622;28;20021;-73
2024/03/26 09:05:34;;;;;;;8.80;5.00;;;;;;;;;;5043922;28;20021;-72
2024/03/26 09:08:00;;;;;;;7.70;4.80;;;;;;;;;;5026639;28;20037;-71
2024/03/26 09:10:25;;;;;;;11.02;4.93;;;;;;;;;;5038747;28;20033;-72
2024/03/26 09:12:51;;;;;;;7.85;3.90;;;;;;;;;;5024218;28;20349;-71
2024/03/26 09:15:16;;;;;;;10.85;4.20;;;;;;;;;;5040847;28;20025;-72
2024/03/26 09:17:41;;;;;;;7.53;3.45;;;;;;;;;;5022935;28;20220;-70
2024/03/26 09:20:07;;;;;;;10.35;4.45;;;;;;;;;;5032705;28;20086;-73
2024/03/26 09:22:32;;;;;;;11.23;3.28;;;;;;;;;;5013574;28;20044;-73
2024/03/26 09:24:58;;;;;;;7.65;3.47;;;;;;;;;;5033571;28;20075;-72
2024/03/26 09:27:23;;;;;;;82.25;37.38;;;;;;;;;;5030233;28;20628;-72
2024/03/26 09:29:49;;;;;;;15.65;3.15;;;;;;;;;;5016309;28;20846;-73
2024/03/26 09:32:14;;;;;;;6.45;2.95;;;;;;;;;;5027530;28;20717;-73
2024/03/26 09:34:40;;;;;;;8.73;2.20;;;;;;;;;;5030662;28;20116;-72
2024/03/26 09:37:06;;;;;;;8.20;2.67;;;;;;;;;;5031771;28;20415;-72
2024/03/26 09:39:32;;;;;;;12.75;2.05;;;;;;;;;;5027859;28;20065;-73
2024/03/26 09:41:58;;;;;;;6.93;1.83;;;;;;;;;;5047183;28;20060;-72
2024/03/26 09:44:24;;;;;;;18.73;4.57;;;;;;;;;;5035444;28;21163;-72
2024/03/26 09:46:50;;;;;;;14.57;4.70;;;;;;;;;;5043684;28;20029;-72
2024/03/26 09:49:16;;;;;;;194.30;62.22;;;;;;;;;;5047849;28;20048;-74
2024/03/26 09:51:43;;;;;;;15.57;5.13;;;;;;;;;;5047001;28;20511;-73
2024/03/26 09:54:09;;;;;;;6.78;1.38;;;;;;;;;;5057570;28;20031;-73
2024/03/26 09:56:34;;;;;;;22.73;4.75;;;;;;;;;;5056824;28;20017;-73
2024/03/26 09:58:59;;;;;;;5.75;1.52;;;;;;;;;;5050578;28;20636;-73
2024/03/26 10:01:25;;;;;;;203.05;61.00;;;;;;;;;;5047533;28;20059;-71
2024/03/26 10:03:53;;;;;;;108.43;44.58;;;;;;;;;;5060662;28;20027;-73
2024/03/26 10:06:22;;;;;;;4.68;1.30;;;;;;;;;;5051783;28;20024;-73
2024/03/26 10:08:48;;;;;;;;;;;;;;;;;;5049205;28;20040;-72
2024/03/26 10:11:13;;;;;;;162.17;52.17;;;;;;;;;;5056882;28;19909;-73
2024/03/26 10:13:38;;;;;;;7.75;2.10;;;;;;;;;;5035162;28;20060;-73
2024/03/26 10:16:04;;;;;;;6.18;1.40;;;;;;;;;;5052519;28;20169;-74
2024/03/26 10:18:29;;;;;;;19.13;1.65;;;;;;;;;;5053962;28;20078;-74
2024/03/26 10:20:55;;;;;;;5.13;2.00;;;;;;;;;;5052507;28;20139;-74
2024/03/26 10:23:20;;;;;;;4.75;1.50;;;;;;;;;;5048090;28;20945;-74
2024/03/26 10:25:45;;;;;;;4.03;1.48;;;;;;;;;;5041488;28;20124;-75
2024/03/26 10:28:11;;;;;;;5.75;1.10;;;;;;;;;;5035847;28;20017;-73
2024/03/26 10:30:36;;;;;;;8.52;1.33;;;;;;;;;;5056157;28;20115;-74
2024/03/26 10:33:02;;;;;;;7.53;1.20;;;;;;;;;;5055033;28;21004;-73
2024/03/26 10:35:28;;;;;;;5.50;2.30;;;;;;;;;;5051471;28;20029;-73
2024/03/26 10:37:54;;;;;;;7.72;1.27;;;;;;;;;;5057409;28;20055;-72
2024/03/26 10:40:32;;;;;;;1.58;0.93;;;;;;;;;;5062066;28;20066;-73
2024/03/26 10:43:00;;;;;;;4.97;1.20;;;;;;;;;;5046737;28;20029;-73
2024/03/26 10:45:26;;;;;;;7.97;1.23;;;;;;;;;;5045232;28;20045;-72
2024/03/26 10:47:55;;;;;;;6.22;1.08;;;;;;;;;;5050097;28;20091;-74
2024/03/26 10:50:20;;;;;;;11.82;5.03;;;;;;;;;;5048257;28;20029;-74
2024/03/26 10:52:47;;;;;;;127.57;45.03;;;;;;;;;;5046645;28;20020;-73
2024/03/26 10:55:12;;;;;;;123.75;27.55;;;;;;;;;;5045821;28;20289;-74
2024/03/26 10:57:40;;;;;;;14.90;2.67;;;;;;;;;;5061425;28;20443;-73
2024/03/26 11:00:10;;;;;;;3.03;1.10;;;;;;;;;;5059235;28;20108;-73
2024/03/26 11:02:35;;;;;;;9.85;1.00;;;;;;;;;;5049309;28;20020;-74
2024/03/26 11:05:01;;;;;;;5.72;1.10;;;;;;;;;;5047613;28;20092;-73
2024/03/26 11:07:26;;;;;;;3.03;0.88;;;;;;;;;;5060616;28;20403;-73
2024/03/26 11:10:10;;;;;;;1.25;0.90;;;;;;;;;;5067971;28;20032;-73
2024/03/26 11:12:36;;;;;;;17.60;1.20;;;;;;;;;;5052515;28;20075;-74
2024/03/26 11:15:14;;;;;;;1.98;0.80;;;;;;;;;;5048218;28;20434;-74
2024/03/26 11:17:58;;;;;;;1.73;1.00;;;;;;;;;;5048352;28;20032;-74
2024/03/26 11:20:24;;;;;;;4.50;0.80;;;;;;;;;;5047795;28;20051;-74
2024/03/26 11:22:56;;;;;;;5.10;1.02;;;;;;;;;;5049054;28;20095;-73
2024/03/26 11:25:40;;;;;;;8.02;1.40;;;;;;;;;;5071868;28;20020;-71
2024/03/26 11:28:06;;;;;;;12.85;1.40;;;;;;;;;;5055409;28;20034;-74
2024/03/26 11:30:32;;;;;;;1.88;1.00;;;;;;;;;;5050511;28;20033;-72
2024/03/26 11:32:59;;;;;;;3.67;1.02;;;;;;;;;;5045364;28;20050;-71
2024/03/26 11:35:26;;;;;;;1.70;1.13;;;;;;;;;;5048216;28;20029;-72
2024/03/26 11:37:52;;;;;;;2.28;1.02;;;;;;;;;;5054393;28;20078;-71
2024/03/26 11:40:18;;;;;;;11.32;1.17;;;;;;;;;;5063475;28;20021;-72
2024/03/26 11:42:47;;;;;;;8.07;1.20;;;;;;;;;;5052913;28;20021;-72
2024/03/26 11:45:12;;;;;;;10.00;1.25;;;;;;;;;;5054648;28;20031;-71
2024/03/26 11:47:38;;;;;;;3.83;0.65;;;;;;;;;;5048829;28;20041;-72
2024/03/26 11:50:04;;;;;;;2.22;1.00;;;;;;;;;;5052302;28;20021;-72
2024/03/26 11:52:29;;;;;;;3.45;1.13;;;;;;;;;;5059344;28;20559;-73
2024/03/26 11:54:56;;;;;;;8.50;0.90;;;;;;;;;;5050588;28;20463;-72
2024/03/26 11:57:21;;;;;;;7.22;1.13;;;;;;;;;;5054714;28;20041;-72
2024/03/26 11:59:47;;;;;;;4.63;0.95;;;;;;;;;;5049995;28;20380;-70
2024/03/26 12:02:13;;;;;;;10.70;1.27;;;;;;;;;;5049323;28;20131;-70
2024/03/26 12:04:38;;;;;;;4.45;0.70;;;;;;;;;;5051210;28;20739;-70
2024/03/26 12:07:05;;;;;;;2.65;0.80;;;;;;;;;;5016863;28;20812;-70
2024/03/26 12:09:30;;;;;;;1.77;1.00;;;;;;;;;;5044772;28;20264;-69
2024/03/26 12:11:56;;;;;;;2.95;0.95;;;;;;;;;;5050173;28;20142;-70
2024/03/26 12:14:21;;;;;;;3.55;0.98;;;;;;;;;;5054092;28;20487;-68
2024/03/26 12:16:47;;;;;;;6.55;1.23;;;;;;;;;;5049161;28;20029;-69
2024/03/26 12:19:12;;;;;;;4.80;0.90;;;;;;;;;;5057047;28;20017;-68
2024/03/26 12:21:37;;;;;;;11.32;1.27;;;;;;;;;;5048502;28;20040;-69
2024/03/26 12:24:03;;;;;;;1.75;0.93;;;;;;;;;;5048305;28;20033;-70
2024/03/26 12:26:28;;;;;;;1.08;0.90;;;;;;;;;;5051854;28;20443;-69
2024/03/26 12:28:54;;;;;;;5.55;0.80;;;;;;;;;;5040190;28;20475;-70
2024/03/26 12:31:20;;;;;;;3.85;1.17;;;;;;;;;;5051153;28;20479;-68
2024/03/26 12:33:45;;;;;;;4.00;1.10;;;;;;;;;;5050472;28;20029;-68
2024/03/26 12:36:11;;;;;;;6.38;1.25;;;;;;;;;;5051583;28;20041;-69
2024/03/26 12:38:37;;;;;;;3.10;1.23;;;;;;;;;;5054738;28;20108;-69
2024/03/26 12:41:03;;;;;;;4.85;1.17;;;;;;;;;;5051448;28;20528;-68
2024/03/26 12:43:28;;;;;;;3.90;1.25;;;;;;;;;;5056791;28;20265;-69
2024/03/26 12:45:53;;;;;;;8.20;1.40;;;;;;;;;;5051912;28;20452;-70
2024/03/26 12:48:19;;;;;;;1.88;1.33;;;;;;;;;;5046211;28;20526;-69
2024/03/26 12:50:44;;;;;;;4.82;1.17;;;;;;;;;;5050659;28;20468;-69
2024/03/26 12:53:10;;;;;;;12.07;1.30;;;;;;;;;;5047961;28;20283;-70
2024/03/26 12:55:35;;;;;;;4.53;1.60;;;;;;;;;;5031179;28;20035;-70
2024/03/26 12:58:01;;;;;;;7.47;1.17;;;;;;;;;;5053073;28;20085;-72
2024/03/26 13:00:26;;;;;;;2.45;1.20;;;;;;;;;;5050007;28;20613;-71
2024/03/26 13:02:51;;;;;;;114.00;42.10;;;;;;;;;;5052565;28;20027;-71
2024/03/26 13:05:17;;;;;;;1.15;0.93;;;;;;;;;;5048400;28;20033;-70
2024/03/26 13:07:42;;;;;;;10.48;4.35;;;;;;;;;;5048091;28;20029;-72
2024/03/26 13:10:07;;;;;;;6.18;1.20;;;;;;;;;;5064686;28;20036;-71
2024/03/26 13:12:33;;;;;;;4.88;1.23;;;;;;;;;;5061518;28;20446;-72
2024/03/26 13:14:58;;;;;;;4.35;1.13;;;;;;;;;;5044449;28;20079;-71
2024/03/26 13:17:23;;;;;;;7.13;1.30;;;;;;;;;;5045100;28;20810;-73
2024/03/26 13:19:49;;;;;;;3.30;1.10;;;;;;;;;;5043954;28;20061;-72
2024/03/26 13:22:14;;;;;;;5.65;1.10;;;;;;;;;;5044011;28;20048;-70
2024/03/26 13:24:40;;;;;;;9.88;1.38;;;;;;;;;;5041227;28;20399;-72
2024/03/26 13:27:05;;;;;;;1.33;0.93;;;;;;;;;;5048128;28;20524;-71
2024/03/26 13:29:34;;;;;;;8.35;1.23;;;;;;;;;;5054619;28;20028;-74
2024/03/26 13:31:59;;;;;;;9.77;1.55;;;;;;;;;;5034933;28;20043;-72
2024/03/26 13:34:24;;;;;;;7.13;1.30;;;;;;;;;;5050159;28;20037;-71
2024/03/26 13:36:53;;;;;;;2.40;1.25;;;;;;;;;;5051561;28;20052;-73
2024/03/26 13:39:18;;;;;;;3.83;1.27;;;;;;;;;;5044840;28;20711;-72
2024/03/26 13:41:43;;;;;;;8.38;1.80;;;;;;;;;;5050182;28;20083;-70
2024/03/26 13:44:08;;;;;;;1.80;1.30;;;;;;;;;;5059642;28;20032;-71
2024/03/26 13:46:34;;;;;;;2.33;1.30;;;;;;;;;;5059649;28;20462;-72
2024/03/26 13:48:59;;;;;;;1.90;1.05;;;;;;;;;;5054548;28;20032;-70
2024/03/26 13:51:26;;;;;;;4.10;1.08;;;;;;;;;;5058433;28;20147;-71
2024/03/26 13:53:51;;;;;;;2.05;0.90;;;;;;;;;;5059604;28;20378;-70
2024/03/26 13:56:16;;;;;;;6.68;1.10;;;;;;;;;;5062989;28;20347;-71
2024/03/26 13:58:42;;;;;;;1.42;1.00;;;;;;;;;;5060384;28;20062;-72
2024/03/26 14:01:07;;;;;;;5.22;1.65;;;;;;;;;;5051709;28;20079;-72
2024/03/26 14:03:32;;;;;;;6.82;1.35;;;;;;;;;;5064914;28;20479;-72
2024/03/26 14:05:58;;;;;;;3.05;1.40;;;;;;;;;;5051272;28;20150;-72
2024/03/26 14:08:23;;;;;;;1.80;1.23;;;;;;;;;;5049637;28;20025;-71
2024/03/26 14:10:48;;;;;;;2.80;1.73;;;;;;;;;;5049726;28;20029;-72
2024/03/26 14:13:14;;;;;;;7.40;1.60;;;;;;;;;;5060589;28;20049;-69
2024/03/26 14:15:40;;;;;;;5.85;1.08;;;;;;;;;;5052274;28;20463;-70
2024/03/26 14:18:06;;;;;;;4.57;1.35;;;;;;;;;;5034343;28;20355;-74
2024/03/26 14:20:31;;;;;;;5.40;1.85;;;;;;;;;;5049791;28;20330;-73